createdAt,value
2023-04-19T00:01:40.056Z,7.70
2023-04-19T00:04:09.665Z,8.43
2023-04-19T00:06:38.459Z,8.07
2023-04-19T00:09:07.254Z,8.53
2023-04-19T00:11:35.172Z,7.20
2023-04-19T00:14:03.793Z,6.37
2023-04-19T00:16:32.520Z,8.60
2023-04-19T00:19:03.066Z,8.77
2023-04-19T00:21:31.639Z,8.23
2023-04-19T00:24:00.042Z,8.87
2023-04-19T00:26:28.584Z,8.10
2023-04-19T00:28:57.087Z,8.00
2023-04-19T00:31:25.703Z,9.00
2023-04-19T00:33:54.444Z,9.30
2023-04-19T00:36:23.693Z,8.03
2023-04-19T00:38:51.572Z,8.90
2023-04-19T00:41:19.452Z,9.23
2023-04-19T00:43:47.316Z,9.60
2023-04-19T00:46:15.584Z,8.93
2023-04-19T00:48:43.565Z,9.20
2023-04-19T00:51:11.963Z,8.83
2023-04-19T00:53:41.257Z,9.00
2023-04-19T00:56:09.238Z,9.23
2023-04-19T00:58:37.291Z,9.13
2023-04-19T01:01:06.461Z,9.23
2023-04-19T01:03:35.039Z,9.40
2023-04-19T01:06:03.309Z,7.87
2023-04-19T01:08:31.243Z,8.43
2023-04-19T01:11:00.502Z,8.70
2023-04-19T01:13:28.663Z,9.30
2023-04-19T01:15:56.561Z,9.03
2023-04-19T01:18:25.700Z,9.57
2023-04-19T01:20:53.834Z,9.43
2023-04-19T01:23:23.084Z,9.50
2023-04-19T01:25:51.102Z,9.60
2023-04-19T01:28:19.030Z,9.07
2023-04-19T01:30:46.897Z,9.40
2023-04-19T01:33:14.787Z,9.20
2023-04-19T01:35:42.715Z,9.57
2023-04-19T01:38:10.589Z,9.77
2023-04-19T01:40:39.831Z,10.00
2023-04-19T01:43:08.138Z,10.10
2023-04-19T01:45:36.283Z,10.63
2023-04-19T01:48:04.736Z,9.43
2023-04-19T01:50:32.775Z,10.63
2023-04-19T01:53:00.908Z,10.23
2023-04-19T01:55:30.108Z,9.93
2023-04-19T01:57:59.317Z,10.80
2023-04-19T02:00:27.331Z,10.10
2023-04-19T02:02:55.331Z,10.73
2023-04-19T02:05:23.311Z,10.37
2023-04-19T02:07:51.182Z,9.90
2023-04-19T02:10:19.117Z,10.67
2023-04-19T02:12:46.998Z,10.37
2023-04-19T02:15:16.233Z,9.43
2023-04-19T02:17:44.131Z,10.43
2023-04-19T02:20:12.245Z,10.30
2023-04-19T02:22:40.242Z,10.40
2023-04-19T02:25:08.701Z,11.67
2023-04-19T02:27:36.562Z,10.27
2023-04-19T02:30:04.585Z,10.07
2023-04-19T02:32:33.847Z,10.73
2023-04-19T02:35:01.729Z,11.37
2023-04-19T02:37:29.576Z,11.60
2023-04-19T02:39:57.436Z,10.93
2023-04-19T02:42:25.376Z,11.93
2023-04-19T02:44:53.255Z,11.80
2023-04-19T02:47:21.282Z,11.80
2023-04-19T02:49:50.518Z,11.53
2023-04-19T02:52:18.327Z,11.93
2023-04-19T02:54:46.328Z,11.10
2023-04-19T02:57:14.253Z,12.80
2023-04-19T02:59:42.126Z,12.30
2023-04-19T03:02:10.048Z,12.13
2023-04-19T03:04:38.246Z,13.27
2023-04-19T03:07:07.483Z,11.87
2023-04-19T03:09:35.357Z,12.70
2023-04-19T03:12:03.381Z,11.73
2023-04-19T03:14:31.245Z,11.43
2023-04-19T03:16:59.093Z,13.50
2023-04-19T03:19:26.977Z,12.40
2023-04-19T03:21:54.840Z,13.00
2023-04-19T03:24:30.202Z,12.80
2023-04-19T03:26:59.351Z,12.97
2023-04-19T03:29:27.288Z,12.70
2023-04-19T03:31:55.210Z,12.57
2023-04-19T03:34:23.024Z,14.30
2023-04-19T03:36:50.956Z,13.80
2023-04-19T03:39:18.861Z,13.97
2023-04-19T03:41:48.101Z,15.40
2023-04-19T03:44:16.239Z,14.10
2023-04-19T03:46:46.470Z,13.33
2023-04-19T03:49:14.699Z,15.37
2023-04-19T03:51:42.621Z,15.37
2023-04-19T03:54:10.471Z,15.00
2023-04-19T03:56:38.376Z,14.50
2023-04-19T03:59:07.598Z,15.30
2023-04-19T04:01:35.584Z,14.67
2023-04-19T04:04:05.117Z,16.60
2023-04-19T04:06:33.338Z,16.57
2023-04-19T04:09:01.639Z,16.23
2023-04-19T04:11:29.559Z,16.63
2023-04-19T04:13:57.502Z,17.07
2023-04-19T04:16:26.773Z,16.17
2023-04-19T04:18:54.722Z,16.87
2023-04-19T04:21:24.249Z,16.07
2023-04-19T04:23:53.256Z,16.53
2023-04-19T04:26:21.918Z,16.73
2023-04-19T04:28:49.824Z,17.07
2023-04-19T04:31:19.061Z,17.67
2023-04-19T04:33:48.301Z,15.73
2023-04-19T04:36:16.224Z,16.17
2023-04-19T04:38:44.115Z,13.63
2023-04-19T04:41:12.890Z,17.23
2023-04-19T04:43:40.797Z,16.10
2023-04-19T04:46:09.113Z,18.17
2023-04-19T04:48:37.085Z,16.10
2023-04-19T04:51:06.412Z,16.20
2023-04-19T04:53:34.300Z,16.23
2023-04-19T04:56:02.235Z,17.43
2023-04-19T04:58:30.534Z,16.70
2023-04-19T05:00:58.413Z,18.07
2023-04-19T05:03:27.209Z,18.63
2023-04-19T05:05:55.158Z,17.30
2023-04-19T05:08:24.375Z,17.33
2023-04-19T05:10:52.210Z,17.97
2023-04-19T05:13:20.077Z,16.90
2023-04-19T05:15:48.105Z,19.67
2023-04-19T05:18:16.020Z,19.10
2023-04-19T05:20:43.909Z,16.63
2023-04-19T05:23:11.752Z,17.63
2023-04-19T05:25:41.850Z,18.33
2023-04-19T05:28:10.048Z,19.03
2023-04-19T05:30:37.958Z,18.70
2023-04-19T05:33:06.312Z,18.83
2023-04-19T05:35:34.557Z,19.77
2023-04-19T05:38:02.937Z,18.23
2023-04-19T05:40:30.968Z,19.80
2023-04-19T05:43:00.222Z,19.80
2023-04-19T05:45:28.103Z,21.23
2023-04-19T05:47:56.367Z,19.13
2023-04-19T05:50:24.341Z,20.70
2023-04-19T05:52:52.253Z,20.00
2023-04-19T05:55:20.161Z,19.27
2023-04-19T05:57:48.261Z,20.43
2023-04-19T06:00:19.008Z,20.57
2023-04-19T06:02:47.126Z,21.40
2023-04-19T06:05:15.182Z,19.77
2023-04-19T06:07:50.631Z,21.27
2023-04-19T06:10:23.460Z,21.63
2023-04-19T06:12:51.378Z,20.93
2023-04-19T06:15:20.933Z,20.23
2023-04-19T06:17:51.061Z,21.70
2023-04-19T06:20:19.109Z,21.93
2023-04-19T06:22:47.043Z,21.03
2023-04-19T06:25:15.165Z,21.53
2023-04-19T06:27:43.044Z,22.07
2023-04-19T06:30:11.287Z,21.23
2023-04-19T06:32:40.625Z,21.13
2023-04-19T06:35:09.445Z,21.07
2023-04-19T06:37:37.539Z,20.60
2023-04-19T06:40:08.813Z,20.60
2023-04-19T06:42:36.659Z,19.87
2023-04-19T06:45:05.253Z,19.43
2023-04-19T06:47:35.444Z,19.97
2023-04-19T06:50:05.389Z,20.03
2023-04-19T06:52:33.292Z,21.07
2023-04-19T06:55:01.445Z,20.87
2023-04-19T06:57:29.373Z,21.63
2023-04-19T06:59:58.293Z,20.90
2023-04-19T07:02:26.387Z,19.83
2023-04-19T07:04:54.407Z,19.30
2023-04-19T07:07:23.968Z,19.27
2023-04-19T07:09:51.852Z,20.63
2023-04-19T07:12:20.266Z,20.27
2023-04-19T07:14:48.208Z,20.60
2023-04-19T07:17:18.237Z,19.67
2023-04-19T07:19:48.816Z,19.97
2023-04-19T07:22:17.073Z,19.97
2023-04-19T07:24:46.344Z,20.57
2023-04-19T07:27:16.544Z,19.17
2023-04-19T07:29:44.391Z,19.57
2023-04-19T07:32:14.051Z,19.03
2023-04-19T07:34:43.592Z,19.90
2023-04-19T07:37:12.704Z,19.17
2023-04-19T07:39:40.746Z,19.50
2023-04-19T07:42:10.139Z,20.00
2023-04-19T07:44:38.710Z,18.73
2023-04-19T07:47:07.191Z,19.17
2023-04-19T07:49:35.288Z,19.07
2023-04-19T07:52:03.482Z,19.13
2023-04-19T07:54:32.301Z,19.63
2023-04-19T07:57:00.269Z,19.57
2023-04-19T07:59:29.575Z,19.20
2023-04-19T08:01:57.561Z,18.37
2023-04-19T08:04:26.136Z,17.60
2023-04-19T08:06:54.509Z,17.80
2023-04-19T08:09:22.722Z,19.00
2023-04-19T08:11:50.981Z,18.33
2023-04-19T08:14:32.238Z,17.60
2023-04-19T08:19:35.915Z,19.00
2023-04-19T08:22:07.754Z,19.83
2023-04-19T08:24:36.338Z,20.20
2023-04-19T08:27:04.872Z,20.47
2023-04-19T08:29:33.725Z,20.93
2023-04-19T08:32:05.201Z,19.10
2023-04-19T08:34:33.335Z,16.63
2023-04-19T08:37:04.523Z,18.00
2023-04-19T08:39:35.233Z,16.90
2023-04-19T08:42:10.509Z,19.63
2023-04-19T08:45:05.697Z,20.37
2023-04-19T08:47:37.211Z,18.63
2023-04-19T08:50:24.025Z,18.60
2023-04-19T08:53:05.656Z,20.67
2023-04-19T08:56:03.524Z,19.77
2023-04-19T09:01:12.859Z,19.67
2023-04-19T09:03:59.470Z,22.00
2023-04-19T09:06:31.311Z,19.07
2023-04-19T09:09:28.857Z,21.20
2023-04-19T09:12:02.328Z,18.03
2023-04-19T09:14:30.332Z,22.20
2023-04-19T09:17:13.372Z,21.60
2023-04-19T09:19:48.264Z,16.07
2023-04-19T09:22:16.216Z,20.00
2023-04-19T09:27:16.150Z,21.40
2023-04-19T09:29:44.562Z,21.53
2023-04-19T09:32:12.461Z,22.43
2023-04-19T09:34:43.533Z,22.27
2023-04-19T09:37:29.670Z,21.97
2023-04-19T09:40:18.193Z,23.07
2023-04-19T09:45:30.058Z,21.50
2023-04-19T09:48:05.975Z,22.27
2023-04-19T09:50:42.354Z,21.67
2023-04-19T09:53:20.213Z,22.73
2023-04-19T09:55:59.672Z,21.30
2023-04-19T09:58:47.018Z,16.63
2023-04-19T10:01:19.288Z,18.50
2023-04-19T10:03:51.494Z,19.97
2023-04-19T10:08:53.152Z,20.60
2023-04-19T10:11:22.754Z,16.90
2023-04-19T10:13:50.941Z,19.00
2023-04-19T10:16:20.233Z,17.30
2023-04-19T10:18:50.219Z,18.90
2023-04-19T10:21:18.822Z,20.43
2023-04-19T10:23:46.698Z,19.10
2023-04-19T10:26:16.243Z,16.30
2023-04-19T10:28:44.152Z,18.33
2023-04-19T10:31:13.108Z,21.37
2023-04-19T10:33:41.399Z,20.10
2023-04-19T10:36:10.572Z,19.63
2023-04-19T10:38:39.664Z,17.90
2023-04-19T10:41:14.532Z,16.63
2023-04-19T10:43:47.180Z,19.00
2023-04-19T10:46:16.733Z,19.17
2023-04-19T10:48:54.635Z,21.23
2023-04-19T10:51:23.791Z,20.33
2023-04-19T10:53:58.807Z,21.57
2023-04-19T10:56:58.020Z,19.03
2023-04-19T10:59:27.784Z,19.20
2023-04-19T11:02:02.147Z,18.60
2023-04-19T11:05:14.521Z,21.47
2023-04-19T11:07:43.043Z,19.20
2023-04-19T11:10:11.797Z,21.93
2023-04-19T11:12:43.618Z,20.10
2023-04-19T11:15:13.025Z,22.17
2023-04-19T11:17:42.635Z,19.50
2023-04-19T11:20:11.764Z,19.83
2023-04-19T11:22:40.411Z,20.20
2023-04-19T11:25:09.862Z,20.40
2023-04-19T11:27:38.057Z,16.93
2023-04-19T11:30:06.889Z,21.27
2023-04-19T11:32:36.396Z,20.30
2023-04-19T11:35:08.912Z,19.97
2023-04-19T11:37:37.242Z,18.30
2023-04-19T11:40:06.480Z,18.67
2023-04-19T11:42:34.559Z,18.43
2023-04-19T11:45:02.651Z,17.13
2023-04-19T11:47:30.901Z,18.20
2023-04-19T11:50:17.341Z,19.30
2023-04-19T11:52:45.430Z,19.42
2023-04-19T11:55:19.894Z,17.67
2023-04-19T11:57:51.040Z,19.25
2023-04-19T12:00:20.134Z,17.92
2023-04-19T12:02:48.291Z,17.95
2023-04-19T12:05:17.897Z,18.45
2023-04-19T12:08:02.436Z,16.73
2023-04-19T12:10:31.387Z,16.48
2023-04-19T12:13:02.281Z,17.13
2023-04-19T12:15:43.698Z,18.48
2023-04-19T12:18:11.941Z,16.85
2023-04-19T12:20:46.799Z,14.95
2023-04-19T12:23:15.912Z,17.73
2023-04-19T12:25:43.849Z,16.33
2023-04-19T12:28:11.734Z,16.17
2023-04-19T12:30:39.811Z,16.53
2023-04-19T12:33:07.913Z,15.15
2023-04-19T12:35:36.081Z,15.30
2023-04-19T12:38:05.367Z,13.68
2023-04-19T12:40:33.742Z,15.93
2023-04-19T12:43:01.678Z,15.52
2023-04-19T12:45:29.669Z,16.20
2023-04-19T12:47:57.574Z,15.23
2023-04-19T12:50:25.483Z,17.63
2023-04-19T12:52:54.087Z,15.98
2023-04-19T12:55:23.717Z,15.80
2023-04-19T12:57:51.636Z,15.93
2023-04-19T13:00:19.690Z,16.48
2023-04-19T13:02:48.489Z,15.68
2023-04-19T13:05:16.612Z,16.60
2023-04-19T13:07:44.505Z,16.20
2023-04-19T13:10:12.533Z,15.82
2023-04-19T13:12:42.165Z,14.70
2023-04-19T13:15:11.372Z,15.57
2023-04-19T13:17:39.261Z,14.45
2023-04-19T13:20:08.623Z,16.15
2023-04-19T13:22:36.645Z,15.05
2023-04-19T13:25:04.950Z,13.05
2023-04-19T13:27:32.888Z,15.35
2023-04-19T13:30:02.217Z,14.65
2023-04-19T13:32:30.450Z,13.85
2023-04-19T13:34:58.454Z,14.20
2023-04-19T13:37:26.547Z,13.63
2023-04-19T13:40:03.946Z,13.98
2023-04-19T13:42:39.036Z,15.43
2023-04-19T13:45:09.884Z,14.30
2023-04-19T13:47:37.879Z,12.23
2023-04-19T13:50:06.365Z,13.27
2023-04-19T13:52:34.318Z,11.60
2023-04-19T13:55:02.163Z,12.90
2023-04-19T13:57:30.085Z,13.27
2023-04-19T13:59:58.003Z,13.43
2023-04-19T14:02:27.421Z,12.55
2023-04-19T14:04:58.934Z,13.32
2023-04-19T14:07:26.848Z,12.57
2023-04-19T14:09:55.098Z,11.73
2023-04-19T14:12:23.491Z,11.30
2023-04-19T14:14:52.309Z,11.15
2023-04-19T14:17:20.647Z,12.50
2023-04-19T14:19:50.174Z,11.95
2023-04-19T14:22:18.400Z,13.40
2023-04-19T14:24:47.004Z,12.20
2023-04-19T14:27:15.307Z,12.85
2023-04-19T14:29:43.464Z,11.10
2023-04-19T14:32:24.951Z,12.00
2023-04-19T14:34:56.048Z,12.90
2023-04-19T14:37:24.632Z,11.38
2023-04-19T14:39:52.698Z,11.95
2023-04-19T14:42:22.586Z,12.05
2023-04-19T14:44:52.204Z,10.60
2023-04-19T14:47:20.118Z,12.75
2023-04-19T14:49:48.044Z,12.77
2023-04-19T14:52:17.529Z,10.02
2023-04-19T14:54:45.688Z,10.73
2023-04-19T14:57:14.217Z,11.05
2023-04-19T14:59:42.167Z,13.27
2023-04-19T15:02:10.885Z,11.73
2023-04-19T15:04:41.057Z,9.73
2023-04-19T15:07:09.365Z,13.35
2023-04-19T15:09:38.889Z,12.63
2023-04-19T15:12:17.590Z,11.85
2023-04-19T15:14:45.940Z,12.98
2023-04-19T15:17:13.816Z,13.60
2023-04-19T15:19:41.853Z,13.57
2023-04-19T15:22:09.952Z,12.93
2023-04-19T15:24:39.342Z,13.90
2023-04-19T15:27:07.248Z,12.70
2023-04-19T15:29:48.295Z,12.85
2023-04-19T15:32:16.305Z,14.48
2023-04-19T15:34:44.279Z,13.20
2023-04-19T15:37:12.183Z,12.27
2023-04-19T15:39:41.462Z,13.30
2023-04-19T15:42:09.359Z,13.38
2023-04-19T15:44:37.225Z,13.25
2023-04-19T15:47:05.455Z,13.35
2023-04-19T15:49:35.642Z,13.43
2023-04-19T15:52:03.585Z,13.98
2023-04-19T15:54:31.576Z,14.07
2023-04-19T15:57:02.586Z,10.85
2023-04-19T15:59:31.540Z,11.95
2023-04-19T16:01:59.727Z,12.93
2023-04-19T16:04:27.808Z,12.88
2023-04-19T16:06:57.759Z,13.50
2023-04-19T16:09:26.419Z,13.30
2023-04-19T16:11:55.313Z,13.25
2023-04-19T16:14:24.844Z,11.55
2023-04-19T16:16:54.401Z,12.95
2023-04-19T16:19:23.627Z,10.75
2023-04-19T16:21:51.496Z,13.02
2023-04-19T16:24:19.439Z,12.15
2023-04-19T16:26:48.385Z,11.15
2023-04-19T16:29:17.114Z,12.48
2023-04-19T16:31:46.639Z,12.45
2023-04-19T16:34:15.142Z,11.80
2023-04-19T16:36:44.828Z,11.02
2023-04-19T16:39:12.965Z,11.60
2023-04-19T16:41:40.928Z,12.23
2023-04-19T16:44:08.975Z,11.35
2023-04-19T16:46:36.949Z,12.32
2023-04-19T16:49:06.501Z,10.95
2023-04-19T16:51:34.385Z,13.35
2023-04-19T16:54:02.339Z,11.50
2023-04-19T16:56:30.592Z,11.10
2023-04-19T16:58:58.505Z,10.70
2023-04-19T17:01:26.467Z,8.82
2023-04-19T17:03:58.893Z,10.32
2023-04-19T17:06:34.427Z,11.45
2023-04-19T17:09:05.007Z,11.88
2023-04-19T17:11:33.330Z,10.93
2023-04-19T17:14:02.766Z,10.15
2023-04-19T17:16:31.259Z,11.10
2023-04-19T17:18:59.353Z,11.63
2023-04-19T17:21:28.883Z,11.25
2023-04-19T17:23:56.824Z,12.48
2023-04-19T17:26:24.927Z,11.32
2023-04-19T17:28:52.989Z,11.15
2023-04-19T17:31:20.988Z,10.67
2023-04-19T17:33:48.968Z,11.77
2023-04-19T17:36:17.034Z,11.30
2023-04-19T17:38:46.461Z,10.90
2023-04-19T17:41:17.401Z,10.50
2023-04-19T17:43:45.639Z,11.90
2023-04-19T17:46:14.294Z,11.87
2023-04-19T17:48:42.207Z,11.73
2023-04-19T17:51:10.116Z,10.30
2023-04-19T17:53:38.021Z,12.13
2023-04-19T17:56:07.508Z,10.40
2023-04-19T17:58:36.487Z,8.43
2023-04-19T18:01:04.641Z,11.13
2023-04-19T18:03:32.812Z,9.90
2023-04-19T18:06:01.128Z,10.33
2023-04-19T18:08:29.086Z,10.47
2023-04-19T18:10:56.981Z,10.93
2023-04-19T18:13:26.628Z,10.00
2023-04-19T18:15:54.694Z,9.87
2023-04-19T18:18:22.724Z,10.30
2023-04-19T18:20:50.802Z,9.13
2023-04-19T18:23:18.709Z,9.63
2023-04-19T18:25:53.332Z,9.77
2023-04-19T18:28:21.315Z,9.57
2023-04-19T18:30:51.435Z,9.23
2023-04-19T18:33:19.311Z,9.80
2023-04-19T18:35:47.237Z,9.43
2023-04-19T18:38:15.282Z,9.67
2023-04-19T18:40:43.292Z,10.00
2023-04-19T18:43:11.222Z,10.23
2023-04-19T18:45:39.151Z,9.20
2023-04-19T18:48:08.638Z,7.37
2023-04-19T18:50:37.775Z,9.03
2023-04-19T18:53:05.754Z,9.50
2023-04-19T18:55:33.815Z,7.60
2023-04-19T18:58:01.850Z,7.77
2023-04-19T19:00:29.721Z,9.30
2023-04-19T19:02:59.937Z,8.80
2023-04-19T19:05:30.416Z,7.87
2023-04-19T19:07:58.693Z,8.90
2023-04-19T19:10:51.782Z,8.77
2023-04-19T19:13:14.587Z,8.33
2023-04-19T19:15:43.721Z,8.63
2023-04-19T19:18:11.692Z,8.37
2023-04-19T19:20:41.353Z,7.87
2023-04-19T19:23:09.278Z,8.03
2023-04-19T19:25:37.197Z,8.73
2023-04-19T19:28:09.705Z,7.83
2023-04-19T19:30:50.150Z,7.67
2023-04-19T19:33:18.514Z,8.37
2023-04-19T19:35:48.067Z,7.10
2023-04-19T19:38:16.564Z,8.67
2023-04-19T19:41:24.706Z,8.70
2023-04-19T19:43:35.438Z,8.40
2023-04-19T19:46:05.031Z,8.87
2023-04-19T19:48:38.507Z,8.30
2023-04-19T19:51:47.546Z,6.97
2023-04-19T19:54:02.506Z,7.27
2023-04-19T19:56:30.505Z,7.90
2023-04-19T19:58:58.379Z,9.10
2023-04-19T20:01:27.204Z,8.03
2023-04-19T20:03:56.106Z,7.63
2023-04-19T20:07:17.264Z,8.87
2023-04-19T20:09:13.963Z,8.67
2023-04-19T20:11:41.961Z,7.17
2023-04-19T20:14:09.835Z,7.03
2023-04-19T20:16:37.767Z,7.50
2023-04-19T20:19:09.653Z,8.00
2023-04-19T20:21:39.110Z,6.27
2023-04-19T20:24:07.832Z,7.67
2023-04-19T20:26:35.831Z,4.83
2023-04-19T20:29:03.683Z,5.07
2023-04-19T20:31:31.666Z,5.70
2023-04-19T20:33:59.579Z,5.03
2023-04-19T20:36:28.428Z,4.73
2023-04-19T20:38:58.696Z,5.23
2023-04-19T20:41:27.214Z,5.40
2023-04-19T20:43:57.221Z,4.97
2023-04-19T20:46:25.177Z,4.53
2023-04-19T20:48:53.104Z,3.53
2023-04-19T20:51:20.983Z,4.33
2023-04-19T20:53:48.887Z,4.17
2023-04-19T20:56:18.345Z,3.93
2023-04-19T20:58:46.265Z,3.30
2023-04-19T21:01:17.281Z,2.67
2023-04-19T21:03:46.351Z,4.37
2023-04-19T21:06:14.431Z,3.00
2023-04-19T21:08:42.973Z,2.50
2023-04-19T21:11:11.411Z,3.63
2023-04-19T21:13:40.911Z,3.47
2023-04-19T21:16:08.952Z,3.23
2023-04-19T21:18:36.906Z,3.70
2023-04-19T21:21:04.930Z,2.97
2023-04-19T21:23:32.826Z,2.77
2023-04-19T21:26:02.552Z,3.17
2023-04-19T21:28:30.467Z,3.33
2023-04-19T21:30:59.881Z,2.83
2023-04-19T21:33:27.792Z,3.60
2023-04-19T21:35:55.850Z,3.47
2023-04-19T21:38:23.761Z,3.00
2023-04-19T21:40:52.011Z,2.97
2023-04-19T21:43:19.900Z,2.97
2023-04-19T21:45:47.853Z,2.90
2023-04-19T21:48:17.156Z,3.23
2023-04-19T21:50:45.042Z,2.77
2023-04-19T21:53:12.952Z,3.20
2023-04-19T21:55:40.873Z,2.40
2023-04-19T21:58:08.720Z,3.43
2023-04-19T22:00:36.684Z,3.40
2023-04-19T22:03:04.776Z,2.73
2023-04-19T22:05:34.192Z,2.53
2023-04-19T22:08:04.649Z,2.93
2023-04-19T22:10:33.819Z,3.00
2023-04-19T22:13:03.640Z,2.97
2023-04-19T22:15:31.576Z,3.27
2023-04-19T22:18:02.971Z,3.00
2023-04-19T22:20:32.084Z,2.80
2023-04-19T22:23:01.330Z,3.03
2023-04-19T22:25:29.245Z,3.30
2023-04-19T22:27:57.134Z,2.60
2023-04-19T22:30:25.012Z,2.77
2023-04-19T22:32:53.005Z,2.97
2023-04-19T22:35:22.731Z,2.70
2023-04-19T22:37:51.215Z,2.90
2023-04-19T22:40:20.442Z,3.00
2023-04-19T22:42:48.302Z,3.20
2023-04-19T22:45:16.157Z,3.07
2023-04-19T22:47:44.082Z,3.43
2023-04-19T22:50:12.577Z,3.60
2023-04-19T22:52:40.946Z,3.07
2023-04-19T22:55:10.203Z,3.40
2023-04-19T22:57:39.442Z,2.77
2023-04-19T23:00:10.679Z,2.63
2023-04-19T23:02:38.837Z,4.07
2023-04-19T23:05:08.488Z,2.87
2023-04-19T23:07:36.455Z,3.80
2023-04-19T23:10:04.708Z,3.57
2023-04-19T23:12:33.608Z,3.10
2023-04-19T23:15:04.004Z,3.50
2023-04-19T23:17:31.919Z,3.50
2023-04-19T23:20:00.214Z,3.33
2023-04-19T23:22:28.108Z,4.13
2023-04-19T23:24:56.099Z,4.03
2023-04-19T23:27:23.972Z,2.87
2023-04-19T23:29:51.868Z,3.53
2023-04-19T23:32:21.356Z,4.13
2023-04-19T23:34:49.274Z,3.60
2023-04-19T23:37:17.130Z,2.90
2023-04-19T23:39:45.025Z,3.90
2023-04-19T23:42:12.863Z,3.57
2023-04-19T23:44:42.220Z,4.00
2023-04-19T23:47:11.758Z,3.43
2023-04-19T23:49:41.087Z,3.63
2023-04-19T23:52:08.930Z,3.70
2023-04-19T23:54:36.761Z,3.57
2023-04-19T23:57:04.786Z,3.90
2023-04-19T23:59:33.207Z,3.53
